Time;durP1;ratioP1;P1;durP2;ratioP2;P2;SDS_P1;SDS_P2;PMS_P1;PMS_P2;Temp;Humidity;BMP_temperature;BMP_pressure;BME280_temperature;BME280_humidity;BME280_pressure;Samples;Min_cycle;Max_cycle;Signal;HPM_P1;HPM_P2
2023/07/25 00:01:10;;;;;;;31.48;4.90;;;;;;;;;;5072891;28;20359;-77
2023/07/25 00:03:36;;;;;;;25.98;4.88;;;;;;;;;;5072354;28;20040;-77
2023/07/25 00:06:03;;;;;;;22.70;5.60;;;15.10;99.90;;;;;;5072560;28;20493;-77
2023/07/25 00:08:29;;;;;;;28.63;5.32;;;;;;;;;;5055660;28;20047;-77
2023/07/25 00:10:55;;;;;;;25.17;5.60;;;;;;;;;;5055986;28;20056;-78
2023/07/25 00:13:21;;;;;;;18.40;4.63;;;;;;;;;;5072414;28;20036;-78
2023/07/25 00:15:48;;;;;;;19.73;4.75;;;;;;;;;;5072221;28;20043;-78
2023/07/25 00:18:14;;;;;;;21.55;4.82;;;;;;;;;;5072185;28;20044;-78
2023/07/25 00:20:40;;;;;;;28.80;5.68;;;;;;;;;;5072401;28;20459;-77
2023/07/25 00:23:06;;;;;;;25.27;5.43;;;;;;;;;;5072112;28;20399;-77
2023/07/25 00:25:32;;;;;;;39.25;5.00;;;;;;;;;;5072175;28;20052;-77
2023/07/25 00:27:58;;;;;;;21.95;4.72;;;;;;;;;;5055947;28;20588;-77
2023/07/25 00:30:24;;;;;;;24.75;4.88;;;;;;;;;;5055392;28;20047;-77
2023/07/25 00:32:51;;;;;;;30.38;5.10;;;;;;;;;;5071784;28;20177;-77
2023/07/25 00:35:17;;;;;;;26.67;5.97;;;;;;;;;;5071834;28;20047;-77
2023/07/25 00:37:43;;;;;;;25.95;5.13;;;;;;;;;;5072038;28;20047;-77
2023/07/25 00:40:09;;;;;;;24.33;4.45;;;14.20;99.90;;;;;;5072237;28;20363;-78
2023/07/25 00:42:34;;;;;;;21.90;5.28;;;13.90;99.90;;;;;;5071776;28;20045;-78
2023/07/25 00:45:01;;;;;;;24.27;5.43;;;;;;;;;;5071700;28;20044;-78
2023/07/25 00:47:27;;;;;;;19.05;5.20;;;;;;;;;;5072041;28;20048;-78
2023/07/25 00:49:53;;;;;;;25.33;4.68;;;;;;;;;;5071543;28;20056;-78
2023/07/25 00:52:19;;;;;;;23.70;5.13;;;;;;;;;;5071736;28;20510;-79
2023/07/25 00:54:47;;;;;;;21.23;4.40;;;14.90;99.90;;;;;;5071719;28;20041;-78
2023/07/25 00:57:14;;;;;;;20.85;4.90;;;;;;;;;;5071922;28;20040;-78
2023/07/25 00:59:40;;;;;;;16.85;4.88;;;;;;;;;;5071558;28;20091;-78
2023/07/25 01:02:06;;;;;;;26.63;5.05;;;;;;;;;;5071840;28;20036;-78
2023/07/25 01:04:32;;;;;;;17.30;5.10;;;;;;;;;;5075775;28;20567;-77
2023/07/25 01:06:59;;;;;;;26.90;4.70;;;14.70;99.90;;;;;;5075912;28;20048;-78
2023/07/25 01:09:35;;;;;;;26.45;5.53;;;15.10;99.90;;;;;;5076072;28;20115;-78
2023/07/25 01:12:02;;;;;;;20.73;5.18;;;14.90;99.90;;;;;;5059422;28;20044;-78
2023/07/25 01:14:30;;;;;;;20.80;5.28;;;14.70;99.90;;;;;;5075998;28;20466;-78
2023/07/25 01:16:57;;;;;;;32.17;5.85;;;;;;;;;;5075957;28;20071;-78
2023/07/25 01:19:26;;;;;;;30.50;6.03;;;14.90;99.90;;;;;;5059073;28;20036;-78
2023/07/25 01:21:52;;;;;;;26.77;5.20;;;;;;;;;;5059175;28;20089;-78
2023/07/25 01:24:19;;;;;;;31.50;6.88;;;;;;;;;;5075382;28;20037;-78
2023/07/25 01:26:45;;;;;;;26.80;4.57;;;;;;;;;;5058863;28;20394;-78
2023/07/25 01:29:11;;;;;;;35.97;6.18;;;;;;;;;;5058720;28;20032;-78
2023/07/25 01:31:37;;;;;;;34.63;5.88;;;;;;;;;;5075233;28;20041;-78
2023/07/25 01:34:03;;;;;;;23.25;5.80;;;;;;;;;;5074970;28;20095;-78
2023/07/25 01:36:29;;;;;;;32.05;5.68;;;;;;;;;;5075487;28;20398;-73
2023/07/25 01:38:55;;;;;;;26.88;5.20;;;;;;;;;;5075025;28;20048;-73
2023/07/25 01:41:21;;;;;;;30.75;6.78;;;;;;;;;;5074956;28;20068;-72
2023/07/25 01:43:47;;;;;;;31.85;5.80;;;;;;;;;;5074989;28;20638;-72
2023/07/25 01:46:13;;;;;;;28.48;5.20;;;;;;;;;;5058637;28;20051;-73
2023/07/25 01:48:39;;;;;;;22.15;5.75;;;;;;;;;;5058489;28;20044;-73
2023/07/25 01:51:05;;;;;;;26.63;5.57;;;;;;;;;;5074664;28;20139;-73
2023/07/25 01:53:31;;;;;;;29.23;5.43;;;;;;;;;;5074888;28;20571;-73
2023/07/25 01:55:57;;;;;;;36.45;6.22;;;;;;;;;;5074978;28;20063;-73
2023/07/25 01:58:23;;;;;;;27.95;5.05;;;;;;;;;;5074723;28;20036;-74
2023/07/25 02:00:57;;;;;;;20.13;5.53;;;14.90;99.90;;;;;;5074788;28;20500;-73
2023/07/25 02:03:23;;;;;;;24.90;5.18;;;;;;;;;;5074699;28;20045;-73
2023/07/25 02:05:50;;;;;;;28.27;4.78;;;;;;;;;;5074563;28;20047;-73
2023/07/25 02:08:16;;;;;;;26.98;4.57;;;;;;;;;;5074923;28;20051;-73
2023/07/25 02:10:42;;;;;;;18.55;4.55;;;;;;;;;;5074524;28;20044;-73
2023/07/25 02:13:08;;;;;;;24.90;4.35;;;;;;;;;;5074391;28;20440;-73
2023/07/25 02:15:36;;;;;;;29.40;5.32;;;;;;;;;;5073196;28;20083;-73
2023/07/25 02:18:02;;;;;;;24.10;5.18;;;;;;;;;;5074258;28;20040;-73
2023/07/25 02:20:31;;;;;;;26.25;5.38;;;14.70;99.90;;;;;;5074529;28;20071;-73
2023/07/25 02:22:58;;;;;;;22.58;4.55;;;;;;;;;;5074194;28;20119;-73
2023/07/25 02:25:25;;;;;;;18.73;4.60;;;14.70;99.90;;;;;;5074229;28;20072;-73
2023/07/25 02:27:51;;;;;;;20.08;5.30;;;;;;;;;;5074372;28;20501;-73
2023/07/25 02:30:17;;;;;;;28.00;4.50;;;;;;;;;;5074281;28;20051;-73
2023/07/25 02:32:43;;;;;;;18.73;4.85;;;;;;;;;;5074137;28;20048;-73
2023/07/25 02:35:09;;;;;;;24.85;4.93;;;;;;;;;;5074399;28;20366;-73
2023/07/25 02:37:35;;;;;;;18.17;4.38;;;;;;;;;;5074320;28;20063;-73
2023/07/25 02:40:02;;;;;;;21.00;5.40;;;;;;;;;;5057400;28;20058;-73
2023/07/25 02:42:28;;;;;;;23.05;4.75;;;;;;;;;;5041191;28;20049;-73
2023/07/25 02:44:54;;;;;;;25.40;4.47;;;;;;;;;;5073849;28;20047;-73
2023/07/25 02:47:20;;;;;;;26.58;4.90;;;;;;;;;;5057435;28;20083;-73
2023/07/25 02:49:46;;;;;;;30.80;5.10;;;;;;;;;;5057231;28;20057;-73
2023/07/25 02:52:12;;;;;;;24.20;4.75;;;;;;;;;;5074115;28;20049;-73
2023/07/25 02:54:38;;;;;;;23.98;4.38;;;;;;;;;;5073723;28;20036;-73
2023/07/25 02:57:04;;;;;;;23.02;4.78;;;13.20;99.90;;;;;;5073530;28;20393;-73
2023/07/25 02:59:30;;;;;;;21.27;4.60;;;;;;;;;;5057624;28;20099;-73
2023/07/25 03:01:57;;;;;;;19.60;4.70;;;;;;;;;;5057157;28;20120;-73
2023/07/25 03:04:23;;;;;;;22.55;6.07;;;;;;;;;;5073533;28;20041;-74
2023/07/25 03:06:49;;;;;;;18.48;4.53;;;;;;;;;;5073860;28;20044;-73
2023/07/25 03:09:15;;;;;;;24.63;4.63;;;;;;;;;;5073386;28;20047;-73
2023/07/25 03:11:41;;;;;;;24.08;4.93;;;;;;;;;;5073360;28;20041;-73
2023/07/25 03:14:07;;;;;;;29.90;5.82;;;;;;;;;;5073255;28;20127;-73
2023/07/25 03:16:33;;;;;;;25.75;5.28;;;;;;;;;;5073185;28;20102;-73
2023/07/25 03:18:59;;;;;;;17.52;4.35;;;;;;;;;;5073286;28;20394;-73
2023/07/25 03:21:25;;;;;;;23.30;4.60;;;;;;;;;;5056825;28;20051;-73
2023/07/25 03:23:51;;;;;;;20.42;4.65;;;;;;;;;;5073318;28;20052;-73
2023/07/25 03:26:17;;;;;;;18.55;4.30;;;;;;;;;;5072698;28;20083;-73
2023/07/25 03:28:43;;;;;;;13.93;4.35;;;;;;;;;;5073052;28;20389;-73
2023/07/25 03:31:09;;;;;;;30.27;4.78;;;;;;;;;;5072921;28;20041;-73
2023/07/25 03:33:36;;;;;;;30.05;5.43;;;;;;;;;;5072798;28;20043;-73
2023/07/25 03:36:02;;;;;;;22.20;4.93;;;;;;;;;;5072982;28;20041;-73
2023/07/25 03:38:28;;;;;;;33.67;6.10;;;;;;;;;;5072823;28;20490;-78
2023/07/25 03:40:54;;;;;;;20.35;4.75;;;;;;;;;;5073072;28;20043;-78
2023/07/25 03:43:20;;;;;;;16.00;4.53;;;;;;;;;;5056105;28;20047;-78
2023/07/25 03:45:46;;;;;;;25.60;5.05;;;;;;;;;;5072843;28;20556;-78
2023/07/25 03:48:13;;;;;;;20.05;5.05;;;;;;;;;;5072645;28;20055;-78
2023/07/25 03:50:39;;;;;;;26.30;6.28;;;;;;;;;;5072432;28;20048;-78
2023/07/25 03:53:05;;;;;;;16.48;4.63;;;;;;;;;;5072529;28;20149;-79
2023/07/25 03:55:32;;;;;;;18.40;4.30;;;;;;;;;;5072569;28;20124;-79
2023/07/25 03:57:58;;;;;;;19.25;4.53;;;;;;;;;;5072432;28;20048;-78
2023/07/25 04:00:24;;;;;;;22.15;4.55;;;;;;;;;;5055946;28;20068;-78
2023/07/25 04:02:50;;;;;;;26.92;3.92;;;;;;;;;;5072217;28;20482;-77
2023/07/25 04:05:16;;;;;;;19.60;4.15;;;;;;;;;;5072137;28;20048;-78
2023/07/25 04:07:42;;;;;;;25.10;5.18;;;;;;;;;;5072218;28;20051;-78
2023/07/25 04:10:08;;;;;;;23.65;5.03;;;;;;;;;;5072383;28;20060;-77
2023/07/25 04:12:34;;;;;;;26.85;5.13;;;;;;;;;;5071856;28;20037;-77
2023/07/25 04:15:00;;;;;;;24.10;4.68;;;;;;;;;;5055848;28;20119;-78
2023/07/25 04:17:27;;;;;;;23.77;5.00;;;;;;;;;;5071957;28;20038;-78
2023/07/25 04:19:53;;;;;;;21.58;4.47;;;;;;;;;;5072282;28;20040;-78
2023/07/25 04:22:19;;;;;;;22.17;4.25;;;;;;;;;;5072145;28;20106;-78
2023/07/25 04:24:45;;;;;;;23.00;4.72;;;;;;;;;;5055630;28;20461;-77
2023/07/25 04:27:11;;;;;;;23.77;4.40;;;;;;;;;;5072014;28;20402;-77
2023/07/25 04:29:37;;;;;;;18.83;3.80;;;;;;;;;;5072389;28;20040;-77
2023/07/25 04:32:03;;;;;;;16.15;5.45;;;;;;;;;;5055151;28;20032;-77
2023/07/25 04:34:29;;;;;;;19.05;3.85;;;;;;;;;;5071813;28;20127;-77
2023/07/25 04:36:55;;;;;;;31.02;5.15;;;;;;;;;;5071512;28;20051;-77
2023/07/25 04:39:21;;;;;;;27.48;3.90;;;;;;;;;;5071719;28;20489;-77
2023/07/25 04:41:47;;;;;;;23.27;4.82;;;;;;;;;;5055082;28;20036;-77
2023/07/25 04:44:14;;;;;;;20.67;3.50;;;;;;;;;;5055007;28;20136;-77
2023/07/25 04:46:40;;;;;;;20.65;3.65;;;;;;;;;;5071661;28;20482;-72
2023/07/25 04:49:06;;;;;;;17.20;3.55;;;;;;;;;;5071664;28;20040;-72
2023/07/25 04:51:33;;;;;;;16.27;3.72;;;;;;;;;;5054812;28;20413;-72
2023/07/25 04:53:59;;;;;;;14.48;3.05;;;;;;;;;;5054878;28;20048;-72
2023/07/25 04:56:25;;;;;;;23.60;3.42;;;;;;;;;;5071570;28;20041;-72
2023/07/25 04:58:51;;;;;;;13.85;3.13;;;;;;;;;;5071501;28;20150;-72
2023/07/25 05:01:17;;;;;;;20.65;3.33;;;;;;;;;;5071678;28;20048;-72
2023/07/25 05:03:43;;;;;;;22.27;3.45;;;;;;;;;;5071614;28;20508;-72
2023/07/25 05:06:11;;;;;;;18.48;3.03;;;;;;;;;;5071461;28;20040;-72
2023/07/25 05:08:37;;;;;;;22.70;3.53;;;;;;;;;;5071573;28;20060;-72
2023/07/25 05:11:03;;;;;;;16.55;3.28;;;;;;;;;;5071719;28;20069;-72
2023/07/25 05:13:29;;;;;;;22.98;2.80;;;;;;;;;;5054604;28;20487;-72
2023/07/25 05:15:55;;;;;;;18.95;3.72;;;;;;;;;;5071391;28;20443;-72
2023/07/25 05:18:22;;;;;;;11.45;3.28;;;;;;;;;;5054711;28;20522;-72
2023/07/25 05:20:48;;;;;;;14.43;3.28;;;;;;;;;;5071327;28;20083;-72
2023/07/25 05:23:14;;;;;;;23.63;2.72;;;;;;;;;;5054628;28;20535;-72
2023/07/25 05:25:40;;;;;;;10.50;2.70;;;;;;;;;;5071295;28;20044;-72
2023/07/25 05:28:06;;;;;;;21.95;2.63;;;;;;;;;;5071393;28;20041;-77
2023/07/25 05:30:32;;;;;;;15.02;2.53;;;;;;;;;;5054967;28;20494;-77
2023/07/25 05:32:58;;;;;;;15.27;2.80;;;;;;;;;;5054814;28;20527;-77
2023/07/25 05:35:24;;;;;;;17.40;2.50;;;;;;;;;;5071235;28;20040;-77
2023/07/25 05:37:50;;;;;;;14.52;3.58;;;;;;;;;;5054945;28;20394;-77
2023/07/25 05:40:16;;;;;;;10.77;2.20;;;;;;;;;;5071367;28;20036;-77
2023/07/25 05:42:43;;;;;;;13.00;2.30;;;;;;;;;;5071758;28;20440;-77
2023/07/25 05:45:09;;;;;;;8.02;2.13;;;;;;;;;;5054715;28;20128;-77
2023/07/25 05:47:35;;;;;;;11.02;2.38;;;;;;;;;;5071305;28;20044;-78
2023/07/25 05:50:01;;;;;;;14.40;2.60;;;;;;;;;;5074116;28;20114;-77
2023/07/25 05:52:27;;;;;;;9.75;2.33;;;;;;;;;;5058411;28;20048;-77
2023/07/25 05:54:53;;;;;;;16.05;2.80;;;;;;;;;;5074769;28;20037;-77
2023/07/25 05:57:20;;;;;;;10.45;2.75;;;;;;;;;;5074999;28;20040;-77
2023/07/25 05:59:46;;;;;;;27.17;2.50;;;;;;;;;;5074858;28;20391;-77
2023/07/25 06:02:12;;;;;;;26.52;3.67;;;;;;;;;;5058044;28;20486;-77
2023/07/25 06:04:39;;;;;;;14.88;3.33;;;;;;;;;;5075016;28;20051;-77
2023/07/25 06:07:06;;;;;;;19.90;2.40;;;14.90;99.90;;;;;;5058283;28;20036;-77
2023/07/25 06:09:32;;;;;;;14.43;2.35;;;;;;;;;;5057968;28;20048;-78
2023/07/25 06:11:59;;;;;;;19.30;2.40;;;;;;;;;;5074494;28;20517;-78
2023/07/25 06:14:25;;;;;;;7.43;2.28;;;;;;;;;;5074446;28;20494;-78
2023/07/25 06:16:51;;;;;;;16.67;2.60;;;;;;;;;;5074544;28;20040;-78
2023/07/25 06:19:17;;;;;;;12.63;2.63;;;;;;;;;;5074292;28;20123;-78
2023/07/25 06:21:43;;;;;;;14.73;2.30;;;;;;;;;;5057803;28;20044;-78
2023/07/25 06:24:10;;;;;;;11.48;2.15;;;;;;;;;;5074399;28;20048;-78
2023/07/25 06:26:36;;;;;;;15.45;2.30;;;;;;;;;;5041077;28;20068;-77
2023/07/25 06:29:02;;;;;;;21.30;2.60;;;;;;;;;;5074189;28;20068;-78
2023/07/25 06:31:28;;;;;;;18.98;2.63;;;;;;;;;;5057427;28;20041;-72
2023/07/25 06:33:54;;;;;;;12.48;2.22;;;;;;;;;;5075118;28;20512;-72
2023/07/25 06:36:20;;;;;;;13.73;3.10;;;;;;;;;;5074021;28;20079;-73
2023/07/25 06:38:46;;;;;;;13.38;3.05;;;;;;;;;;5073908;28;20044;-78
2023/07/25 06:41:12;;;;;;;21.95;4.13;;;;;;;;;;5074211;28;20033;-78
2023/07/25 06:43:38;;;;;;;11.93;2.95;;;;;;;;;;5073862;28;20044;-78
2023/07/25 06:46:04;;;;;;;12.30;3.13;;;;;;;;;;5057100;28;20043;-78
2023/07/25 06:48:30;;;;;;;14.70;2.30;;;;;;;;;;5073922;28;20055;-73
2023/07/25 06:50:56;;;;;;;12.68;2.80;;;;;;;;;;5073686;28;20413;-72
2023/07/25 06:53:23;;;;;;;14.43;2.33;;;;;;;;;;5057067;28;20406;-72
2023/07/25 06:55:49;;;;;;;19.00;2.63;;;;;;;;;;5073507;28;20037;-72
2023/07/25 06:58:15;;;;;;;17.25;2.85;;;;;;;;;;5057242;28;20044;-73
2023/07/25 07:00:41;;;;;;;9.43;2.22;;;;;;;;;;5072691;28;20060;-73
2023/07/25 07:03:07;;;;;;;8.23;2.80;;;;;;;;;;5073401;28;20410;-73
2023/07/25 07:05:33;;;;;;;18.17;2.55;;;;;;;;;;5056795;28;20044;-73
2023/07/25 07:08:00;;;;;;;13.75;2.90;;;;;;;;;;5073522;28;20036;-73
2023/07/25 07:10:26;;;;;;;16.75;3.25;;;15.60;99.90;;;;;;5073563;28;20044;-73
2023/07/25 07:12:53;;;;;;;7.70;2.30;;;;;;;;;;5056705;28;20041;-73
2023/07/25 07:15:24;;;;;;;10.98;2.33;;;;;;;;;;5073495;28;20052;-73
2023/07/25 07:17:53;;;;;;;8.68;2.35;;;15.60;99.90;;;;;;5090236;28;20447;-73
2023/07/25 07:20:19;;;;;;;14.07;2.70;;;;;;;;;;5039792;28;20106;-73
2023/07/25 07:22:45;;;;;;;17.80;3.50;;;;;;;;;;5073439;28;20190;-73
2023/07/25 07:25:11;;;;;;;15.38;2.33;;;;;;;;;;5056543;28;20047;-73
2023/07/25 07:27:37;;;;;;;8.73;2.53;;;;;;;;;;5073791;28;20483;-72
2023/07/25 07:30:03;;;;;;;15.57;2.60;;;16.20;99.90;;;;;;5073133;28;20047;-72
2023/07/25 07:32:29;;;;;;;18.45;2.70;;;;;;;;;;5072830;28;20393;-73
2023/07/25 07:34:56;;;;;;;19.10;2.83;;;;;;;;;;5072846;28;20044;-73
2023/07/25 07:37:22;;;;;;;10.15;2.53;;;;;;;;;;5073137;28;20041;-73
2023/07/25 07:39:48;;;;;;;11.10;2.65;;;;;;;;;;5072773;28;20089;-72
2023/07/25 07:42:14;;;;;;;15.50;2.97;;;;;;;;;;5039639;28;20044;-73
2023/07/25 07:44:40;;;;;;;15.48;3.47;;;;;;;;;;5072668;28;20043;-78
2023/07/25 07:47:06;;;;;;;8.45;2.50;;;;;;;;;;5073041;28;20033;-78
2023/07/25 07:49:33;;;;;;;11.68;2.20;;;;;;;;;;5055784;28;20109;-78
2023/07/25 07:52:00;;;;;;;16.80;2.72;;;;;;;;;;5055891;28;20080;-78
2023/07/25 07:54:26;;;;;;;9.75;2.90;;;;;;;;;;5072457;28;20044;-78
2023/07/25 07:56:52;;;;;;;7.93;2.40;;;;;;;;;;5056098;28;20084;-78
2023/07/25 07:59:18;;;;;;;8.77;2.22;;;;;;;;;;5072432;28;20127;-79
2023/07/25 08:01:44;;;;;;;15.88;2.53;;;;;;;;;;5072690;28;20036;-79
2023/07/25 08:04:11;;;;;;;10.93;2.38;;;;;;;;;;5072180;28;20048;-79
2023/07/25 08:06:37;;;;;;;10.23;2.35;;;15.60;99.90;;;;;;5072534;28;20045;-79
2023/07/25 08:09:04;;;;;;;7.82;2.30;;;;;;;;;;5022564;28;20135;-73
2023/07/25 08:11:30;;;;;;;15.88;2.10;;;;;;;;;;5072456;28;20055;-72
2023/07/25 08:13:56;;;;;;;8.40;2.85;;;;;;;;;;5072055;28;20490;-73
2023/07/25 08:16:22;;;;;;;10.65;2.13;;;;;;;;;;5079273;28;20040;-79
2023/07/25 08:18:48;;;;;;;7.65;2.05;;;;;;;;;;5091107;28;20035;-78
2023/07/25 08:21:14;;;;;;;17.63;2.55;;;;;;;;;;5090023;28;20515;-78
2023/07/25 08:23:41;;;;;;;12.50;2.40;;;;;;;;;;5084667;28;20042;-79
2023/07/25 08:26:07;;;;;;;13.23;2.60;;;;;;;;;;5055325;28;20040;-78
2023/07/25 08:28:33;;;;;;;11.55;1.90;;;;;;;;;;5055725;28;20083;-79
2023/07/25 08:31:00;;;;;;;12.23;2.45;;;16.30;98.10;;;;;;5071979;28;20143;-79
2023/07/25 08:33:27;;;;;;;8.35;2.45;;;;;;;;;;5071736;28;20045;-73
2023/07/25 08:35:54;;;;;;;4.88;2.90;;;;;;;;;;5071628;28;20037;-79
2023/07/25 08:38:20;;;;;;;11.30;2.15;;;;;;;;;;5071959;28;20101;-79
2023/07/25 08:40:54;;;;;;;9.05;2.08;;;16.50;97.90;;;;;;5071903;28;20040;-79
2023/07/25 08:43:21;;;;;;;8.70;2.00;;;;;;;;;;5071923;28;20040;-78
2023/07/25 08:45:49;;;;;;;8.15;2.17;;;16.50;97.80;;;;;;5071749;28;20078;-79
2023/07/25 08:48:15;;;;;;;12.48;2.67;;;;;;;;;;5071959;28;20044;-79
2023/07/25 08:50:45;;;;;;;10.93;1.95;;;17.10;97.10;;;;;;5071695;28;20515;-79
2023/07/25 08:53:14;;;;;;;18.75;2.50;;;;;;;;;;5071658;28;20055;-79
2023/07/25 08:55:40;;;;;;;9.57;2.13;;;;;;;;;;5055361;28;20037;-79
2023/07/25 08:58:06;;;;;;;8.10;2.10;;;;;;;;;;5071814;28;20040;-79
2023/07/25 09:00:34;;;;;;;5.82;1.73;;;;;;;;;;5072168;28;20106;-79
2023/07/25 09:03:00;;;;;;;9.00;2.35;;;;;;;;;;5054990;28;20106;-78
2023/07/25 09:05:26;;;;;;;10.60;2.10;;;;;;;;;;5054765;28;20045;-79
2023/07/25 09:07:53;;;;;;;13.18;2.53;;;17.60;96.30;;;;;;5054877;28;20059;-79
2023/07/25 09:10:19;;;;;;;3.50;1.80;;;;;;;;;;5054936;28;20041;-79
2023/07/25 09:12:45;;;;;;;27.48;3.58;;;;;;;;;;5071434;28;20049;-78
2023/07/25 09:15:11;;;;;;;6.63;2.13;;;;;;;;;;5071532;28;20115;-79
2023/07/25 09:17:37;;;;;;;12.73;2.72;;;;;;;;;;5071555;28;20045;-72
2023/07/25 09:20:03;;;;;;;9.05;1.85;;;;;;;;;;5071350;28;20127;-73
2023/07/25 09:22:32;;;;;;;9.77;1.75;;;18.00;95.30;;;;;;5071414;28;20494;-73
2023/07/25 09:24:58;;;;;;;7.88;1.98;;;;;;;;;;5074777;28;20040;-72
2023/07/25 09:27:26;;;;;;;11.15;2.10;;;17.80;94.90;;;;;;5042350;28;20036;-72
2023/07/25 09:29:52;;;;;;;11.93;2.60;;;;;;;;;;5058835;28;20044;-72
2023/07/25 09:32:22;;;;;;;12.30;1.88;;;17.80;94.90;;;;;;5058571;28;20071;-72
2023/07/25 09:35:06;;;;;;;9.18;1.88;;;17.90;95.40;;;;;;5075331;28;20390;-72
2023/07/25 09:37:32;;;;;;;9.25;2.10;;;;;;;;;;5075277;28;20045;-73
2023/07/25 09:39:58;;;;;;;6.53;1.80;;;;;;;;;;5058582;28;20390;-72
2023/07/25 09:42:25;;;;;;;8.25;1.67;;;18.10;94.10;;;;;;5074972;28;20047;-73
2023/07/25 09:44:52;;;;;;;5.18;1.83;;;18.10;93.80;;;;;;5058585;28;20041;-72
2023/07/25 09:47:28;;;;;;;8.93;1.95;;;;;;;;;;5074873;28;20036;-73
2023/07/25 09:49:55;;;;;;;9.82;1.88;;;17.90;93.60;;;;;;5075979;28;20049;-72
2023/07/25 09:52:23;;;;;;;17.25;2.60;;;18.30;93.90;;;;;;5074676;28;20114;-73
2023/07/25 09:54:49;;;;;;;5.63;1.88;;;;;;;;;;5058174;28;20437;-73
2023/07/25 09:57:15;;;;;;;14.30;1.90;;;;;;;;;;5074654;28;20040;-73
2023/07/25 09:59:42;;;;;;;9.30;2.00;;;18.30;94.10;;;;;;5058195;28;20032;-73
2023/07/25 10:02:09;;;;;;;10.35;2.60;;;;;;;;;;5058268;28;20051;-79
2023/07/25 10:04:38;;;;;;;13.77;2.67;;;;;;;;;;5074599;28;20105;-78
2023/07/25 10:07:06;;;;;;;6.90;1.88;;;18.00;94.40;;;;;;5074608;28;20048;-79
2023/07/25 10:09:32;;;;;;;11.40;2.17;;;;;;;;;;5074912;28;20422;-78
2023/07/25 10:11:58;;;;;;;10.05;2.13;;;;;;;;;;5074689;28;20045;-78
2023/07/25 10:14:24;;;;;;;6.47;2.17;;;;;;;;;;5074359;28;20045;-79
2023/07/25 10:16:50;;;;;;;4.50;1.80;;;;;;;;;;5074392;28;20043;-78
2023/07/25 10:19:16;;;;;;;10.25;1.80;;;;;;;;;;5074525;28;20040;-80
2023/07/25 10:21:47;;;;;;;11.50;2.58;;;;;;;;;;5074434;28;20478;-79
2023/07/25 10:24:13;;;;;;;8.77;1.85;;;;;;;;;;5074383;28;20490;-79
2023/07/25 10:26:59;;;;;;;8.82;1.90;;;18.00;94.60;;;;;;5074367;28;20052;-78
2023/07/25 10:29:36;;;;;;;14.00;2.40;;;;;;;;;;5074321;28;20052;-79
2023/07/25 10:32:03;;;;;;;8.10;2.00;;;;;;;;;;5074240;28;20170;-79
2023/07/25 10:34:45;;;;;;;13.63;2.10;;;;;;;;;;5056822;28;20127;-79
2023/07/25 10:37:30;;;;;;;11.07;2.05;;;18.60;95.60;;;;;;5074142;28;20051;-79
2023/07/25 10:40:16;;;;;;;12.57;2.00;;;19.50;99.10;;;;;;5057682;28;20185;-79
2023/07/25 10:42:58;;;;;;;13.65;2.00;;;19.00;93.40;;;;;;5074328;28;20041;-79
2023/07/25 10:45:30;;;;;;;7.30;1.80;;;;;;;;;;5074269;28;20453;-78
2023/07/25 10:47:59;;;;;;;8.40;2.08;;;18.60;94.40;;;;;;5074146;28;20126;-78
2023/07/25 10:50:26;;;;;;;11.50;2.03;;;18.70;94.10;;;;;;5073738;28;20095;-79
2023/07/25 10:52:53;;;;;;;7.47;1.80;;;;;;;;;;5057293;28;20494;-79
2023/07/25 10:55:19;;;;;;;7.50;1.65;;;;;;;;;;5074055;28;20047;-78
2023/07/25 10:58:10;;;;;;;3.47;1.40;;;19.00;97.20;;;;;;5073836;28;20032;-79
2023/07/25 11:00:37;;;;;;;10.02;1.95;;;18.50;94.40;;;;;;5073702;28;20120;-78
2023/07/25 11:03:27;;;;;;;12.02;1.70;;;18.50;93.60;;;;;;5057326;28;20051;-79
2023/07/25 11:05:53;;;;;;;8.13;1.90;;;;;;;;;;5073689;28;20080;-78
2023/07/25 11:08:19;;;;;;;9.77;2.05;;;;;;;;;;5073489;28;20493;-79
2023/07/25 11:10:45;;;;;;;7.93;1.73;;;;;;;;;;5073396;28;20120;-79
2023/07/25 11:13:11;;;;;;;9.23;2.03;;;19.10;99.30;;;;;;5073471;28;20426;-73
2023/07/25 11:15:38;;;;;;;8.18;2.08;;;;;;;;;;5073338;28;20397;-73
2023/07/25 11:18:07;;;;;;;10.55;1.90;;;19.00;93.40;;;;;;5073525;28;20386;-73
2023/07/25 11:20:33;;;;;;;6.45;2.70;;;;;;;;;;5073235;28;20032;-73
2023/07/25 11:22:59;;;;;;;9.05;1.80;;;;;;;;;;5073039;28;20040;-73
2023/07/25 11:25:25;;;;;;;6.70;1.60;;;;;;;;;;5073211;28;20045;-73
2023/07/25 11:27:51;;;;;;;12.93;2.33;;;;;;;;;;5073163;28;20044;-73
2023/07/25 11:30:19;;;;;;;12.02;1.73;;;18.50;94.10;;;;;;5056537;28;20090;-73
2023/07/25 11:32:52;;;;;;;6.63;1.85;;;18.60;93.30;;;;;;5056141;28;20055;-73
2023/07/25 11:35:19;;;;;;;12.10;3.38;;;;;;;;;;5073150;28;20055;-73
2023/07/25 11:37:46;;;;;;;10.88;2.13;;;18.10;94.70;;;;;;5073090;28;20037;-73
2023/07/25 11:40:27;;;;;;;49.83;5.82;;;18.00;95.40;;;;;;5056254;28;20040;-73
2023/07/25 11:42:53;;;;;;;20.52;2.88;;;;;;;;;;5072837;28;20564;-73
2023/07/25 11:45:20;;;;;;;14.82;2.83;;;;;;;;;;5072818;28;20521;-73
2023/07/25 11:47:49;;;;;;;10.40;2.33;;;17.90;96.10;;;;;;5072325;28;20086;-73
2023/07/25 11:50:16;;;;;;;14.32;2.10;;;;;;;;;;5055736;28;20110;-73
2023/07/25 11:52:43;;;;;;;5.57;2.47;;;18.20;96.60;;;;;;5072648;28;20052;-73
2023/07/25 11:55:10;;;;;;;11.85;2.10;;;18.10;96.10;;;;;;5072556;28;20098;-73
2023/07/25 11:57:37;;;;;;;14.23;2.30;;;;;;;;;;5056082;28;20047;-73
2023/07/25 12:00:07;;;;;;;9.80;2.30;;;;;;;;;;5072790;28;20044;-73
2023/07/25 12:02:37;;;;;;;14.05;2.03;;;17.80;99.90;;;;;;5072596;28;20379;-73
2023/07/25 12:05:03;;;;;;;12.57;2.88;;;;;;;;;;5072176;28;20098;-73
2023/07/25 12:07:51;;;;;;;13.95;1.88;;;18.40;96.70;;;;;;5072332;28;20075;-73
2023/07/25 12:10:34;;;;;;;6.18;2.20;;;18.30;99.90;;;;;;5072455;28;20048;-73
2023/07/25 12:13:04;;;;;;;18.25;2.50;;;18.40;95.70;;;;;;5072387;28;20386;-73
2023/07/25 12:15:49;;;;;;;11.70;2.50;;;18.40;96.90;;;;;;5072366;28;20048;-73
2023/07/25 12:18:29;;;;;;;8.50;2.03;;;;;;;;;;5055498;28;20036;-73
2023/07/25 12:20:55;;;;;;;12.13;3.05;;;19.20;99.90;;;;;;5072137;28;20119;-78
2023/07/25 12:23:37;;;;;;;10.77;2.70;;;18.60;96.40;;;;;;5072354;28;20048;-78
2023/07/25 12:26:04;;;;;;;16.65;2.22;;;;;;;;;;5072464;28;20177;-79
2023/07/25 12:28:41;;;;;;;9.50;2.35;;;18.20;95.40;;;;;;5072231;28;20072;-78
2023/07/25 12:31:07;;;;;;;11.52;2.13;;;;;;;;;;5072007;28;20585;-78
2023/07/25 12:33:33;;;;;;;9.43;1.88;;;;;;;;;;5071860;28;20056;-78
2023/07/25 12:35:59;;;;;;;13.02;2.25;;;19.30;99.90;;;;;;5071982;28;20046;-78
2023/07/25 12:38:24;;;;;;;9.80;2.80;;;18.20;99.90;;;;;;5071843;28;20072;-79
2023/07/25 12:40:50;;;;;;;5.90;1.60;;;19.20;97.30;;;;;;5055647;28;20049;-78
2023/07/25 12:43:16;;;;;;;4.72;1.70;;;;;;;;;;5055677;28;20041;-78
2023/07/25 12:45:42;;;;;;;6.50;1.80;;;;;;;;;;5055254;28;20123;-78
2023/07/25 12:48:08;;;;;;;4.13;1.65;;;;;;;;;;5055021;28;20123;-79
2023/07/25 12:50:35;;;;;;;9.65;1.55;;;;;;;;;;5071808;28;20052;-78
2023/07/25 12:53:01;;;;;;;12.80;2.25;;;;;;;;;;5071728;28;20059;-79
2023/07/25 12:55:27;;;;;;;4.30;1.60;;;;;;;;;;5072039;28;20490;-79
2023/07/25 12:57:53;;;;;;;5.47;1.30;;;;;;;;;;5070919;28;20044;-78
2023/07/25 13:00:19;;;;;;;3.30;1.48;;;18.50;97.90;;;;;;5038711;28;20033;-78
2023/07/25 13:02:45;;;;;;;5.65;1.60;;;19.50;97.50;;;;;;5054825;28;20383;-78
2023/07/25 13:05:10;;;;;;;9.02;1.90;;;18.40;97.00;;;;;;5071477;28;20094;-78
2023/07/25 13:07:37;;;;;;;10.93;1.65;;;;;;;;;;5054888;28;20072;-79
2023/07/25 13:10:05;;;;;;;5.60;1.65;;;;;;;;;;5071501;28;20086;-78
2023/07/25 13:12:32;;;;;;;4.13;1.58;;;;;;;;;;5038930;28;20127;-78
2023/07/25 13:14:58;;;;;;;9.38;2.22;;;;;;;;;;5055206;28;20036;-79
2023/07/25 13:17:23;;;;;;;5.43;1.90;;;19.60;96.60;;;;;;5071551;28;20041;-78
2023/07/25 13:19:49;;;;;;;4.72;1.85;;;;;;;;;;5071365;28;20044;-79
2023/07/25 13:22:16;;;;;;;8.85;1.58;;;;;;;;;;5071584;28;20045;-74
2023/07/25 13:24:42;;;;;;;9.55;2.45;;;;;;;;;;5071346;28;20505;-74
2023/07/25 13:27:07;;;;;;;7.03;1.90;;;19.50;96.10;;;;;;5071409;28;20052;-73
2023/07/25 13:29:34;;;;;;;3.05;1.80;;;;;;;;;;5071279;28;20048;-73
2023/07/25 13:31:59;;;;;;;6.95;2.00;;;19.50;95.90;;;;;;5071506;28;20394;-73
2023/07/25 13:34:25;;;;;;;7.43;2.20;;;;;;;;;;5054320;28;20040;-73
2023/07/25 13:36:51;;;;;;;12.45;2.45;;;18.60;95.40;;;;;;5071514;28;20123;-73
2023/07/25 13:39:18;;;;;;;12.77;2.08;;;;;;;;;;5071629;28;20040;-73
2023/07/25 13:41:44;;;;;;;11.05;1.90;;;20.10;96.90;;;;;;5071358;28;20127;-72
2023/07/25 13:44:09;;;;;;;9.27;2.10;;;19.50;96.70;;;;;;5054687;28;20131;-73
2023/07/25 13:46:35;;;;;;;7.35;1.88;;;19.90;93.90;;;;;;5054569;28;20429;-73
2023/07/25 13:49:02;;;;;;;7.15;1.92;;;;;;;;;;5071248;28;20048;-73
2023/07/25 13:51:27;;;;;;;11.93;2.30;;;19.60;97.10;;;;;;5070915;28;20163;-73
2023/07/25 13:53:53;;;;;;;10.32;2.20;;;;;;;;;;5037813;28;20124;-73
2023/07/25 13:56:19;;;;;;;6.88;1.80;;;18.00;97.00;;;;;;5071363;28;20119;-73
2023/07/25 13:58:48;;;;;;;8.02;2.47;;;18.10;97.30;;;;;;5054338;28;20447;-73
2023/07/25 14:01:14;;;;;;;7.68;2.08;;;;;;;;;;5071518;28;20123;-73
2023/07/25 14:03:40;;;;;;;10.52;2.40;;;19.30;97.60;;;;;;5071264;28;20044;-72
2023/07/25 14:06:06;;;;;;;11.75;2.00;;;;;;;;;;5054563;28;20398;-74